CMB822 Details

Departure: Grantley Adams International Airport (TBPB)
Arrival: Patrick Air Force Base (KCOF)
Route: BGI UA555 ILURI A555 COY SJU RTE6 BEANO Y290 HAGIT Y352 ZQA A555 ZBV BR57V WIERS BR22V FLL LBV COSTR3
Notes: USTRANSCOM CONTRACT FLIGHT


Current Weather Information
TBPB 252300Z 09018KT 9999 SCT020 26/22 Q1014 NOSIG
KCOF 252256Z AUTO 16010KT 10SM CLR 24/19 A3001 RMK AO2 SLP167 T02350192 $